• Join FlightAware (Why Join?)
  • Login
  • US Flag 
02:57AM EDT


 

Airport Tracker/Info


-or-


 

Live Flight TrackerFlight Track Log ✈ SKW5631 ✈ 24-Apr-2013 ✈ KSFO - KSBA

Flight Track Log - Related Links

Times and Time Zones

All times are in EDT time to prevent confusion due to time zone crossing. See the SKW5631 flight status page for this flight to view local times or setup timezone preferences in your user account.

Time Position Orientation Groundspeed Altitude Reporting Facility
EDT Latitude Longitude Course Direction KTS MPH feet Rate Location/Type
10:47AM 37.6333 -122.3667 338° Northwest 133 153 1,000  Level Northern Cal TRACON
10:48AM 37.6667 -122.3833 338° Northwest 171 197 3,000 1,740 Climbing Northern Cal TRACON
10:49AM 37.6500 -122.4500 252° West 218 251 4,500 1,680 Climbing Northern Cal TRACON
10:50AM 37.6000 -122.4667 195° South 199 229 6,400 1,620 Climbing Northern Cal TRACON
10:51AM 37.5822 -122.4747 200° South 202 232 6,900 1,260 Climbing Oakland Center
10:52AM 37.5228 -122.4833 187° South 212 244 8,300 1,440 Climbing Oakland Center
10:53AM 37.4678 -122.5042 197° South 228 262 9,900 1,500 Climbing Oakland Center
10:54AM 37.4236 -122.5575 224° Southwest 224 258 11,400 1,500 Climbing Oakland Center
10:55AM 37.3642 -122.5742 193° South 245 282 13,000 1,560 Climbing Oakland Center
10:56AM 37.3025 -122.5428 158° South 239 275 14,600 1,500 Climbing Oakland Center
10:57AM 37.2406 -122.5139 160° South 240 276 16,100 1,560 Climbing Oakland Center
10:58AM 37.1681 -122.4792 159° South 233 268 17,800 1,320 Climbing Oakland Center
10:59AM 37.1061 -122.4489 159° South 237 273 18,900 1,020 Climbing Oakland Center
11:00AM 37.0508 -122.4069 149° Southeast 235 270 20,000 1,020 Climbing Oakland Center
11:01AM 36.9969 -122.3578 144° Southeast 237 273 21,000 960 Climbing Oakland Center
11:02AM 36.9425 -122.3100 145° Southeast 240 276 22,000 900 Climbing Oakland Center
11:03AM 36.8869 -122.2597 144° Southeast 244 281 22,900 780 Climbing Oakland Center
11:04AM 36.8306 -122.2103 145° Southeast 247 284 23,700 780 Climbing Oakland Center
11:05AM 36.7733 -122.1611 145° Southeast 249 287 24,600 600 Climbing Oakland Center
11:06AM 36.7150 -122.1142 147° Southeast 251 289 25,000 180 Climbing Oakland Center
11:07AM 36.6542 -122.0589 144° Southeast 268 308 25,000  Level Oakland Center
11:08AM 36.5794 -121.9956 146° Southeast 272 313 25,000  Level Oakland Center
11:09AM 36.5203 -121.9406 143° Southeast 267 307 25,000  Level Oakland Center
11:10AM 36.4606 -121.8861 144° Southeast 267 307 25,000  Level Oakland Center
11:11AM 36.4022 -121.8297 142° Southeast 265 305 25,000  Level Oakland Center
11:12AM 36.3408 -121.7675 141° Southeast 266 306 25,000  Level Oakland Center
11:13AM 36.2822 -121.7133 143° Southeast 263 303 25,000  Level Oakland Center
11:14AM 36.2247 -121.6581 142° Southeast 260 299 25,000  Level Oakland Center
11:15AM 36.1664 -121.6025 142° Southeast 264 304 25,000  Level Oakland Center
11:16AM 36.1072 -121.5492 144° Southeast 265 305 25,000  Level Oakland Center
11:17AM 36.0500 -121.4933 142° Southeast 263 303 25,000  Level Oakland Center
11:18AM 35.9928 -121.4386 142° Southeast 262 302 25,000  Level Oakland Center
11:19AM 35.9350 -121.3839 143° Southeast 263 303 25,000  Level Oakland Center
11:20AM 35.8772 -121.3300 143° Southeast 262 302 25,000  Level Oakland Center
11:21AM 35.8083 -121.2661 143° Southeast 260 299 25,000  Level Oakland Center
11:22AM 35.7514 -121.2117 142° Southeast 260 299 25,000  Level Oakland Center
11:23AM 35.6939 -121.1589 143° Southeast 259 298 25,000  Level Oakland Center
11:24AM 35.6367 -121.1053 143° Southeast 261 300 25,000  Level Oakland Center
11:25AM 35.5803 -121.0517 142° Southeast 258 297 25,000  Level Oakland Center
11:26AM 35.5231 -120.9989 143° Southeast 260 299 25,000  Level Oakland Center
11:27AM 35.4664 -120.9469 143° Southeast 257 296 25,000 -120 Level Oakland Center
11:28AM 35.4094 -120.8936 143° Southeast 257 296 24,800 -720 Descending Oakland Center
11:29AM 35.3481 -120.8381 144° Southeast 275 316 23,600 -1,380 Descending Oakland Center
11:30AM 35.3192 -120.8131 145° Southeast 274 315 23,000 -1,560 Descending Los Angeles Center
11:31AM 35.2600 -120.7597 144° Southeast 270 311 21,500 -1,500 Descending Los Angeles Center
11:32AM 35.2044 -120.7072 142° Southeast 256 295 20,000 -1,440 Descending Los Angeles Center
11:33AM 35.1519 -120.6572 142° Southeast 244 281 18,600 -1,380 Descending Los Angeles Center
11:34AM 35.1003 -120.6100 143° Southeast 234 269 17,200 -1,440 Descending Los Angeles Center
11:35AM 35.0481 -120.5647 145° Southeast 229 264 15,700 -1,620 Descending Los Angeles Center
11:36AM 34.9892 -120.5114 143° Southeast 221 254 13,900 -1,500 Descending Los Angeles Center
11:37AM 34.9408 -120.4675 143° Southeast 216 249 12,600 -1,380 Descending Los Angeles Center
11:38AM 34.8939 -120.4231 142° Southeast 213 245 11,100 -1,440 Descending Los Angeles Center
11:39AM 34.8458 -120.3789 143° Southeast 214 246 9,700 -1,080 Descending Los Angeles Center
11:40AM 34.7997 -120.3364 143° Southeast 208 239 8,900 -540 Descending Los Angeles Center
11:40AM 34.7814 -120.3194 143° Southeast 200 230 9,000 60 Climbing Los Angeles Center
11:41AM 34.7578 -120.2939 138° Southeast 197 227 9,000  Level Los Angeles Center
11:42AM 34.7322 -120.2722 145° Southeast 199 229 9,000 -240 Level Los Angeles Center
11:42AM 34.7128 -120.2525 140° Southeast 200 230 8,800 -1,020 Descending Los Angeles Center
11:43AM 34.6844 -120.2300 147° Southeast 205 236 8,000 -1,800 Descending Los Angeles Center
11:43AM 34.6539 -120.2036 145° Southeast 211 243 7,000 -1,500 Descending Los Angeles Center
11:44AM 34.6317 -120.1869 148° Southeast 216 249 6,500 -1,080 Descending Los Angeles Center
11:44AM 34.6050 -120.1622 143° Southeast 213 245 5,900 -1,200 Descending Los Angeles Center
11:45AM 34.5822 -120.1583 172° South 208 239 5,300 -1,680 Descending Los Angeles Center
11:45AM 34.5467 -120.1558 177° South 206 237 4,200 -1,320 Descending Los Angeles Center
11:46AM 34.5250 -120.1531 174° South 205 236 4,000 -240 Descending Los Angeles Center
11:46AM 34.4922 -120.1522 179° South 199 229 4,000  Level Los Angeles Center
11:47AM 34.4744 -120.1483 170° South 192 221 4,000 -720 Level Los Angeles Center
11:48AM 34.4300 -120.1236 155° Southeast 177 204 3,100 -900 Descending Los Angeles Center
11:48AM 34.4250 -120.0919 101° East 165 190 2,500 -840 Descending Los Angeles Center
11:49AM 34.4233 -120.0736 96° East 154 177 2,300 -300 Descending Los Angeles Center
11:49AM 34.4200 -120.0369 96° East 151 174 2,200 -300 Descending Los Angeles Center
11:50AM 34.4236 -119.9883 85° East 149 171 1,800 -360 Descending Los Angeles Center
11:52AM 34.4272 -119.9456 84° East 138 159 1,500 -540 Descending Los Angeles Center
11:53AM 34.4314 -119.9036 83° East 131 151 800 -720 Descending Los Angeles Center
11:55AM 34.4262 -119.8415 90° East  Level Estimated
12:02PM 34.4262 -119.8415 90° East  Level Estimated